DW8953 Weather Reports


time (UTC)temp
F
wind
direction
speed
knots
gust
knots
rain 1hr
in
rain 24hr
in
rain mn
in
humidity
%
barometer
mb
20260504081550 45 0 0.0 0.0 0.00 0.00 0.00 52 1016.7
20260504044554 47 0 0.0 0.0 0.00 0.00 0.00 66 1017.9
20260504043055 48 0 0.0 0.0 0.00 0.00 0.00 66 1017.9
20260504041548 48 0 0.0 0.0 0.00 0.00 0.00 68 1017.9
20260504040052 48 0 0.0 0.0 0.00 0.00 0.00 70 1017.8
20260504034545 49 0 0.0 0.0 0.00 0.00 0.00 71 1017.9
20260504033051 49 0 0.0 0.0 0.00 0.00 0.00 72 1018.0
20260504031553 50 0 0.0 0.0 0.00 0.00 0.00 73 1018.4
20260504030047 50 0 0.0 0.0 0.00 0.00 0.00 73 1018.5
20260504024549 51 0 0.0 0.0 0.00 0.00 0.00 73 1018.5
20260504023049 52 0 0.0 0.0 0.00 0.00 0.00 73 1018.3
20260504021549 53 0 0.0 0.0 0.00 0.00 0.00 72 1018.4
20260504020128 53 0 0.0 0.0 0.00 0.00 0.00 71 1018.2
20260504014602 54 0 0.0 0.0 0.00 0.00 0.00 69 1018.0
20260504013101 55 0 0.0 0.0 0.00 0.00 0.00 66 1017.6
20260504011551 57 0 0.0 0.0 0.00 0.00 0.00 62 1017.5
20260504010051 59 0 0.0 0.0 0.00 0.00 0.00 60 1017.3
20260504004620 60 0 0.0 0.0 0.00 0.00 0.00 58 1017.4
20260504003054 62 0 0.0 0.0 0.00 0.00 0.00 59 1017.3
20260504001617 64 0 0.0 0.0 0.00 0.00 0.00 54 1017.5
20260504000106 65 0 0.0 0.0 0.00 0.00 0.00 47 1017.5
20260503234601 66 0 0.0 0.0 0.00 0.00 0.00 42 1017.6
20260503233045 67 0 0.0 0.0 0.00 0.00 0.00 40 1017.7
20260503231552 69 0 0.0 0.0 0.00 0.00 0.00 41 1017.9
20260503230111 69 0 0.0 0.0 0.00 0.00 0.00 45 1017.9
20260503224553 68 0 0.0 0.0 0.00 0.00 0.00 42 1017.9
20260503223052 69 0 0.0 0.0 0.00 0.00 0.00 43 1018.0
20260503221554 68 0 0.0 0.0 0.00 0.00 0.00 41 1018.1
20260503220054 69 0 0.0 0.0 0.00 0.00 0.00 41 1018.4
20260503214557 69 0 0.0 0.0 0.00 0.00 0.00 44 1018.4
20260503213052 68 0 0.0 0.0 0.00 0.00 0.00 46 1018.4
20260503211551 68 0 0.0 0.0 0.00 0.00 0.00 42 1018.7
20260503210052 68 0 0.0 0.0 0.00 0.00 0.00 43 1019.0
20260503204551 68 0 0.0 0.0 0.00 0.00 0.00 42 1019.2
20260503203112 67 0 0.0 0.0 0.00 0.00 0.00 45 1019.3
20260503201554 67 0 0.0 0.0 0.00 0.00 0.00 47 1019.5
20260503200053 66 0 0.0 0.0 0.00 0.00 0.00 47 1020.0
20260503194557 65 0 0.0 0.0 0.00 0.00 0.00 51 1020.2
20260503193055 66 0 0.0 0.0 0.00 0.00 0.00 47 1020.5
20260503191557 66 0 0.0 0.0 0.00 0.00 0.00 56 1020.7
20260503190103 65 0 0.0 0.0 0.00 0.00 0.00 51 1020.8
20260503184552 65 0 0.0 0.0 0.00 0.00 0.00 54 1020.9
20260503183049 64 0 0.0 0.0 0.00 0.00 0.00 53 1021.0
20260503181558 64 0 0.0 0.0 0.00 0.00 0.00 55 1021.4
20260503180056 64 0 0.0 0.0 0.00 0.00 0.00 50 1021.2
20260503174548 64 0 0.0 0.0 0.00 0.00 0.00 53 1021.5
20260503173052 63 0 0.0 0.0 0.00 0.00 0.00 57 1021.8
20260503171549 62 0 0.0 0.0 0.00 0.00 0.00 53 1021.9